Terminal Aerodrome Forecast
Issued by NWS

Home | Current Version | Previous Version | Graphics & Text | Print | Product List | Glossary On
Versions: 1 2 3 4 5 6 7 8 9 10 11 12 13 14 15 16 17 18 19
549
FTUS43 KOAX 220301 AAA
TAFCDR
TAF AMD
KCDR 220301Z 2203/2224 15024G36KT P6SM SCT022
     FM220500 17020G30KT P6SM OVC018
     FM220800 18016KT P6SM OVC011
     FM221200 24007KT P6SM SCT250=

USA.gov is the U.S. government's official web portal to all federal, state and local government web resources and services.